Time;durP1;ratioP1;P1;durP2;ratioP2;P2;SDS_P1;SDS_P2;PMS_P1;PMS_P2;Temp;Humidity;BMP_temperature;BMP_pressure;BME280_temperature;BME280_humidity;BME280_pressure;Samples;Min_cycle;Max_cycle;Signal;HPM_P1;HPM_P2
2022/01/20 00:00:32;;;;;;;20.63;3.67;;;7.10;99.90;;;;;;6218091;23;20166;-92
2022/01/20 00:03:02;;;;;;;24.57;4.50;;;7.10;99.90;;;;;;6215901;23;20169;-94
2022/01/20 00:05:40;;;;;;;22.77;4.27;;;7.20;99.90;;;;;;6214742;23;20174;-92
2022/01/20 00:08:14;;;;;;;19.77;4.13;;;7.20;99.90;;;;;;6215330;23;20247;-93
2022/01/20 00:27:15;;;;;;;20.47;5.27;;;7.10;99.90;;;;;;6215175;23;20169;-85
2022/01/20 00:32:34;;;;;;;28.93;4.27;;;7.10;99.90;;;;;;6214142;23;20188;-88
2022/01/20 00:35:14;;;;;;;23.70;4.97;;;7.10;99.90;;;;;;6228019;23;20174;-85
2022/01/20 00:37:42;;;;;;;25.93;5.63;;;7.00;99.90;;;;;;6224897;23;20178;-88
2022/01/20 00:40:10;;;;;;;17.97;4.07;;;7.10;99.90;;;;;;6218807;23;20174;-89
2022/01/20 00:42:40;;;;;;;21.97;4.50;;;7.10;99.90;;;;;;6216060;23;20201;-94
2022/01/20 00:45:08;;;;;;;21.60;4.57;;;7.10;99.90;;;;;;6220199;23;20170;-87
2022/01/20 00:47:35;;;;;;;23.50;4.33;;;7.10;99.90;;;;;;6220909;23;20204;-93
2022/01/20 00:50:02;;;;;;;20.07;4.60;;;7.10;99.90;;;;;;6219788;23;20194;-95
2022/01/20 00:52:29;;;;;;;21.30;4.40;;;7.10;99.90;;;;;;6216883;23;20171;-93
2022/01/20 00:54:57;;;;;;;16.37;2.97;;;7.20;99.90;;;;;;6217669;23;20174;-92
2022/01/20 00:57:24;;;;;;;18.43;2.87;;;7.30;99.90;;;;;;6215680;23;20170;-83
2022/01/20 00:59:51;;;;;;;21.17;3.90;;;7.30;99.90;;;;;;6210977;23;20170;-87
2022/01/20 01:02:19;;;;;;;18.87;4.67;;;7.30;99.90;;;;;;6211310;23;20248;-84
2022/01/20 01:04:45;;;;;;;18.23;3.37;;;7.30;99.90;;;;;;6211094;23;20181;-84
2022/01/20 01:07:30;;;;;;;28.67;4.80;;;7.30;99.90;;;;;;6210295;23;20174;-88
2022/01/20 01:09:59;;;;;;;19.30;3.83;;;7.30;99.90;;;;;;6209180;23;20170;-85
2022/01/20 01:12:34;;;;;;;15.57;3.53;;;7.20;99.90;;;;;;6210051;23;20178;-85
2022/01/20 01:15:07;;;;;;;14.43;3.20;;;7.10;99.90;;;;;;6209565;23;20193;-83
2022/01/20 01:20:23;;;;;;;21.53;4.10;;;7.00;99.90;;;;;;6216374;23;20182;-91
2022/01/20 01:22:49;;;;;;;17.37;3.70;;;6.90;99.90;;;;;;6216391;23;20166;-90
2022/01/20 01:25:18;;;;;;;14.67;4.10;;;6.90;99.90;;;;;;6213705;23;20170;-92
2022/01/20 01:27:45;;;;;;;24.17;3.50;;;6.90;99.90;;;;;;6214541;23;20280;-83
2022/01/20 01:33:04;;;;;;;21.93;4.00;;;6.80;99.90;;;;;;6203151;23;20174;-82
2022/01/20 01:35:33;;;;;;;21.83;4.57;;;6.80;99.90;;;;;;6210697;23;20225;-81
2022/01/20 01:40:46;;;;;;;21.10;5.13;;;6.80;99.90;;;;;;6220135;23;20547;-93
2022/01/20 01:43:20;;;;;;;20.57;4.43;;;6.90;99.90;;;;;;6215848;23;20221;-88
2022/01/20 01:45:48;;;;;;;23.10;4.53;;;6.90;99.90;;;;;;6219237;22;20266;-87
2022/01/20 01:48:15;;;;;;;18.67;3.93;;;6.90;99.90;;;;;;6215584;23;20454;-83
2022/01/20 01:50:42;;;;;;;22.57;4.70;;;7.00;99.90;;;;;;6210048;23;20163;-85
2022/01/20 01:53:09;;;;;;;21.00;4.87;;;7.00;99.90;;;;;;6210922;23;20553;-83
2022/01/20 01:55:38;;;;;;;18.87;4.57;;;7.00;99.90;;;;;;6229955;23;20307;-82
2022/01/20 01:58:06;;;;;;;20.37;4.83;;;7.10;99.90;;;;;;6240612;23;20173;-86
2022/01/20 02:00:33;;;;;;;26.50;4.30;;;7.10;99.90;;;;;;6239955;23;20166;-83
2022/01/20 02:03:00;;;;;;;24.83;5.57;;;7.20;99.90;;;;;;6240176;23;20184;-84
2022/01/20 02:05:32;;;;;;;18.40;4.43;;;7.20;99.90;;;;;;6240503;23;20173;-81
2022/01/20 02:08:24;;;;;;;22.23;5.17;;;7.10;99.90;;;;;;6240317;23;20510;-83
2022/01/20 02:19:29;;;;;;;13.17;3.63;;;7.00;99.90;;;;;;6143108;23;20198;-81
2022/01/20 02:22:02;;;;;;;14.00;3.00;;;7.00;99.90;;;;;;6183070;23;20205;-83
2022/01/20 02:24:33;;;;;;;16.10;2.83;;;7.00;99.90;;;;;;6240101;23;20503;-81
2022/01/20 02:27:01;;;;;;;15.60;4.43;;;7.00;99.90;;;;;;6235808;23;20215;-83
2022/01/20 02:29:28;;;;;;;21.77;4.20;;;7.00;99.90;;;;;;6240753;23;20201;-79
2022/01/20 02:31:58;;;;;;;17.73;3.13;;;7.00;99.90;;;;;;6240092;23;20174;-82
2022/01/20 02:34:28;;;;;;;10.70;2.13;;;7.00;99.90;;;;;;6189179;23;20252;-85
2022/01/20 02:36:58;;;;;;;5.17;1.47;;;6.90;99.90;;;;;;6239961;23;20173;-85
2022/01/20 02:39:45;;;;;;;7.53;1.30;;;6.70;99.90;;;;;;6240430;23;20204;-85
2022/01/20 02:45:03;;;;;;;9.53;2.00;;;6.40;99.90;;;;;;6240864;23;20545;-87
2022/01/20 02:47:32;;;;;;;11.83;2.57;;;6.40;99.90;;;;;;6239286;23;20629;-85
2022/01/20 02:50:00;;;;;;;9.30;2.20;;;6.40;99.90;;;;;;6240222;23;20193;-91
2022/01/20 02:52:29;;;;;;;10.83;2.40;;;6.40;99.90;;;;;;6243354;23;20169;-88
2022/01/20 02:54:55;;;;;;;12.80;2.47;;;6.40;99.90;;;;;;6243220;23;20596;-94
2022/01/20 02:57:23;;;;;;;32.83;4.73;;;6.40;99.90;;;;;;6243049;23;20173;-92
2022/01/20 02:59:50;;;;;;;15.33;3.10;;;6.30;99.90;;;;;;6243405;23;20405;-93
2022/01/20 03:02:17;;;;;;;6.77;1.80;;;6.30;99.90;;;;;;6242425;23;20258;-88
2022/01/20 03:04:44;;;;;;;17.33;2.73;;;6.30;99.90;;;;;;6241984;23;20165;-92
2022/01/20 03:07:11;;;;;;;9.80;1.90;;;6.30;99.90;;;;;;6243473;23;20240;-93
2022/01/20 03:09:39;;;;;;;16.50;2.97;;;6.30;99.90;;;;;;6244009;23;20189;-91
2022/01/20 03:12:07;;;;;;;18.43;2.73;;;6.30;99.90;;;;;;6243637;23;20203;-89
2022/01/20 03:14:34;;;;;;;10.63;2.03;;;6.30;99.90;;;;;;6226364;23;20197;-91
2022/01/20 03:17:01;;;;;;;5.63;1.83;;;6.40;99.90;;;;;;6213059;23;20177;-87
2022/01/20 03:19:28;;;;;;;10.67;2.40;;;6.30;99.90;;;;;;6214350;23;20170;-86
2022/01/20 03:21:55;;;;;;;10.47;1.97;;;6.30;99.90;;;;;;6215506;23;20249;-90
2022/01/20 03:24:22;;;;;;;9.33;2.10;;;6.30;99.90;;;;;;6215169;23;20896;-88
2022/01/20 03:26:50;;;;;;;14.27;2.67;;;6.30;99.90;;;;;;6212889;23;20607;-89
2022/01/20 03:29:17;;;;;;;15.07;2.87;;;6.30;99.90;;;;;;6212216;23;20272;-87
2022/01/20 03:31:44;;;;;;;11.83;3.07;;;6.30;99.90;;;;;;6217641;23;20162;-91
2022/01/20 03:34:11;;;;;;;11.67;2.57;;;6.30;99.90;;;;;;6216048;23;20173;-90
2022/01/20 03:36:38;;;;;;;12.83;3.10;;;6.30;99.90;;;;;;6211214;23;20181;-88
2022/01/20 03:39:06;;;;;;;19.40;4.00;;;6.20;99.90;;;;;;6210453;23;20170;-85
2022/01/20 03:41:33;;;;;;;21.00;3.33;;;6.30;99.90;;;;;;6210069;23;20174;-88
2022/01/20 03:44:01;;;;;;;19.87;3.23;;;6.30;99.90;;;;;;6211285;23;20186;-90
2022/01/20 03:46:28;;;;;;;16.97;3.27;;;6.20;99.90;;;;;;6211021;23;20166;-82
2022/01/20 03:49:03;;;;;;;13.27;3.00;;;6.10;99.90;;;;;;6210182;23;20216;-89
2022/01/20 03:51:30;;;;;;;10.90;2.97;;;6.00;99.90;;;;;;6188407;23;20176;-90
2022/01/20 03:53:57;;;;;;;14.30;3.13;;;5.90;99.90;;;;;;6213422;23;20231;-86
2022/01/20 03:56:24;;;;;;;15.97;3.90;;;5.90;99.90;;;;;;6212489;23;20166;-85
2022/01/20 03:58:52;;;;;;;14.43;3.23;;;5.90;99.90;;;;;;6212366;23;20170;-86
2022/01/20 04:01:21;;;;;;;12.23;3.43;;;5.90;99.90;;;;;;6211233;23;20181;-87
2022/01/20 04:03:48;;;;;;;18.00;3.73;;;6.00;99.90;;;;;;6211845;23;20177;-83
2022/01/20 04:06:15;;;;;;;23.00;4.57;;;6.00;99.90;;;;;;6211312;23;20174;-90
2022/01/20 04:08:43;;;;;;;22.53;4.67;;;6.00;99.90;;;;;;6211293;23;20209;-88
2022/01/20 04:11:12;;;;;;;25.53;5.37;;;6.00;99.90;;;;;;6211698;23;20177;-80
2022/01/20 04:13:39;;;;;;;23.97;6.43;;;6.00;99.90;;;;;;6211746;23;20205;-85
2022/01/20 04:16:13;;;;;;;19.40;3.53;;;5.90;99.90;;;;;;6209674;23;20170;-88
2022/01/20 04:18:51;;;;;;;22.40;5.60;;;6.00;99.90;;;;;;6210010;23;20216;-89
2022/01/20 04:21:18;;;;;;;27.33;5.67;;;5.90;99.90;;;;;;6207728;23;20176;-87
2022/01/20 04:23:45;;;;;;;22.60;3.63;;;5.90;99.90;;;;;;6211843;23;20174;-87
2022/01/20 04:26:11;;;;;;;23.73;4.50;;;6.00;99.90;;;;;;6212560;23;20474;-92
2022/01/20 04:28:38;;;;;;;25.40;4.53;;;6.00;99.90;;;;;;6212581;23;20440;-83
2022/01/20 04:31:05;;;;;;;23.07;5.47;;;6.00;99.90;;;;;;6212433;23;20166;-88
2022/01/20 04:33:32;;;;;;;19.17;3.87;;;6.10;99.90;;;;;;6212069;23;20174;-83
2022/01/20 04:36:00;;;;;;;17.33;3.63;;;6.10;99.90;;;;;;6213487;23;20170;-87
2022/01/20 04:38:27;;;;;;;17.17;3.43;;;6.10;99.90;;;;;;6211770;23;20178;-92
2022/01/20 04:40:54;;;;;;;17.63;4.30;;;6.10;99.90;;;;;;6212410;23;20166;-85
2022/01/20 04:43:21;;;;;;;16.40;3.33;;;6.10;99.90;;;;;;6211257;23;20169;-83
2022/01/20 04:45:54;;;;;;;15.40;3.70;;;6.20;99.90;;;;;;6211281;23;20178;-81
2022/01/20 04:48:29;;;;;;;17.63;3.90;;;6.20;99.90;;;;;;6213461;23;20162;-90
2022/01/20 04:59:11;;;;;;;12.73;3.60;;;6.10;99.90;;;;;;6220820;23;20590;-83
2022/01/20 05:01:44;;;;;;;14.03;2.60;;;6.00;99.90;;;;;;6219362;23;20177;-80
2022/01/20 05:04:11;;;;;;;12.70;3.30;;;6.00;99.90;;;;;;6212276;23;20642;-90
2022/01/20 05:06:39;;;;;;;14.50;3.10;;;6.10;99.90;;;;;;6212450;23;20180;-88
2022/01/20 05:09:09;;;;;;;16.30;3.30;;;6.10;99.90;;;;;;6212472;23;20194;-88
2022/01/20 05:11:41;;;;;;;13.43;2.83;;;6.00;99.90;;;;;;6211132;23;20173;-88
2022/01/20 05:14:08;;;;;;;14.73;3.40;;;6.00;99.90;;;;;;6213065;23;20190;-84
2022/01/20 05:16:35;;;;;;;20.00;3.20;;;6.00;99.90;;;;;;6213001;23;20177;-89
2022/01/20 05:19:02;;;;;;;14.10;2.77;;;6.00;99.90;;;;;;6212060;23;20170;-83
2022/01/20 05:21:28;;;;;;;12.60;3.33;;;6.00;99.90;;;;;;6212378;23;20581;-89
2022/01/20 05:23:55;;;;;;;10.50;2.20;;;6.00;99.90;;;;;;6211243;23;20174;-88
2022/01/20 05:26:25;;;;;;;15.73;3.30;;;6.00;99.90;;;;;;6211979;23;20206;-90
2022/01/20 05:28:52;;;;;;;16.73;3.33;;;6.00;99.90;;;;;;6212489;23;20237;-87
2022/01/20 05:31:19;;;;;;;13.97;3.13;;;6.00;99.90;;;;;;6212828;23;20177;-91
2022/01/20 05:33:46;;;;;;;17.67;4.13;;;5.90;99.90;;;;;;6212032;23;20166;-90
2022/01/20 05:36:13;;;;;;;16.40;4.00;;;5.90;99.90;;;;;;6211605;23;20174;-92
2022/01/20 05:38:40;;;;;;;14.83;4.53;;;5.90;99.90;;;;;;6212313;23;20231;-91
2022/01/20 05:41:07;;;;;;;12.10;2.67;;;5.90;99.90;;;;;;6211832;23;20838;-88
2022/01/20 05:43:35;;;;;;;12.97;2.80;;;5.80;99.90;;;;;;6211969;23;20189;-86
2022/01/20 05:46:03;;;;;;;13.33;2.90;;;5.80;99.90;;;;;;6212679;23;20544;-88
2022/01/20 05:48:34;;;;;;;10.03;3.00;;;5.80;99.90;;;;;;6211993;23;20204;-81
2022/01/20 05:51:02;;;;;;;15.07;3.80;;;5.90;99.90;;;;;;6213317;23;20220;-92
2022/01/20 05:53:29;;;;;;;15.53;3.00;;;5.90;99.90;;;;;;6210118;23;20174;-85
2022/01/20 05:55:56;;;;;;;10.10;2.73;;;5.70;99.90;;;;;;6211015;23;20173;-91
2022/01/20 05:58:23;;;;;;;10.40;3.27;;;5.50;99.90;;;;;;6211719;23;20184;-85
2022/01/20 06:00:51;;;;;;;15.33;4.30;;;5.20;99.90;;;;;;6185536;23;20967;-83
2022/01/20 06:03:37;;;;;;;10.00;2.70;;;5.00;99.90;;;;;;6213557;23;20174;-91
2022/01/20 06:06:04;;;;;;;10.27;2.30;;;4.90;99.90;;;;;;6211683;23;20173;-88
2022/01/20 06:08:31;;;;;;;20.37;3.50;;;4.90;99.90;;;;;;6216915;23;20183;-90
2022/01/20 06:10:58;;;;;;;9.13;2.50;;;4.80;99.90;;;;;;6215203;23;20204;-85
2022/01/20 06:13:25;;;;;;;13.73;2.00;;;4.80;99.90;;;;;;6211940;23;20229;-91
2022/01/20 06:15:54;;;;;;;8.07;2.73;;;4.80;99.90;;;;;;6212904;23;20178;-88
2022/01/20 06:18:21;;;;;;;9.27;2.37;;;4.90;99.90;;;;;;6213572;23;20188;-89
2022/01/20 06:20:49;;;;;;;19.13;2.90;;;5.00;99.90;;;;;;6213879;23;20190;-87
2022/01/20 06:23:17;;;;;;;19.30;4.23;;;5.00;99.90;;;;;;6215733;23;20169;-83
2022/01/20 06:25:44;;;;;;;22.83;4.40;;;5.10;99.90;;;;;;6219712;23;20193;-87
2022/01/20 06:28:12;;;;;;;12.70;3.57;;;5.20;99.90;;;;;;6221197;23;20174;-85
2022/01/20 06:30:40;;;;;;;19.07;3.43;;;5.30;99.90;;;;;;6218583;23;20194;-92
2022/01/20 06:33:08;;;;;;;18.27;3.30;;;5.30;99.90;;;;;;6212377;23;20488;-90
2022/01/20 06:35:35;;;;;;;11.23;1.93;;;5.40;99.90;;;;;;6212410;23;20170;-89
2022/01/20 06:38:03;;;;;;;13.50;3.00;;;5.40;99.90;;;;;;6211593;23;20170;-91
2022/01/20 06:40:31;;;;;;;9.53;1.80;;;5.40;99.90;;;;;;6211640;23;20170;-84
2022/01/20 06:42:58;;;;;;;13.57;2.30;;;5.40;99.90;;;;;;6211696;23;20201;-90
2022/01/20 06:45:25;;;;;;;11.90;2.60;;;5.40;99.90;;;;;;6212469;23;20185;-87
2022/01/20 06:47:52;;;;;;;13.53;3.37;;;5.50;99.90;;;;;;6212725;23;20174;-90
2022/01/20 06:50:20;;;;;;;9.03;3.33;;;5.50;99.90;;;;;;6211885;23;20846;-87
2022/01/20 06:52:47;;;;;;;10.93;3.00;;;5.50;99.90;;;;;;6213672;23;20177;-87
2022/01/20 06:55:15;;;;;;;12.10;2.90;;;5.50;99.90;;;;;;6213111;23;20174;-86
2022/01/20 06:57:42;;;;;;;16.00;3.40;;;5.40;99.90;;;;;;6214309;23;20442;-90
2022/01/20 07:00:12;;;;;;;17.03;3.33;;;5.40;99.90;;;;;;6211574;23;20178;-82
2022/01/20 07:02:39;;;;;;;22.20;3.83;;;5.30;99.90;;;;;;6211368;23;20166;-86
2022/01/20 07:05:07;;;;;;;23.53;3.53;;;5.30;99.90;;;;;;6210412;23;20181;-85
2022/01/20 07:07:35;;;;;;;16.10;3.07;;;5.30;99.90;;;;;;6211493;23;20182;-94
2022/01/20 07:10:02;;;;;;;15.37;4.47;;;5.30;99.90;;;;;;6211054;23;20221;-88
2022/01/20 07:12:29;;;;;;;14.00;3.33;;;5.30;99.90;;;;;;6210677;23;20169;-90
2022/01/20 07:14:56;;;;;;;15.60;3.70;;;5.30;99.90;;;;;;6211873;23;20193;-87
2022/01/20 07:17:23;;;;;;;17.23;3.33;;;5.40;99.90;;;;;;6211756;23;20181;-89
2022/01/20 07:19:49;;;;;;;22.17;3.93;;;5.40;99.90;;;;;;6210574;23;20166;-87
2022/01/20 07:22:16;;;;;;;17.57;3.70;;;5.50;99.90;;;;;;6212681;23;20170;-88
2022/01/20 07:24:45;;;;;;;22.30;3.20;;;5.50;99.90;;;;;;6212293;23;20197;-86
2022/01/20 07:27:11;;;;;;;16.30;3.50;;;5.50;99.90;;;;;;6209618;23;20232;-88
2022/01/20 07:29:38;;;;;;;16.83;3.97;;;5.40;99.90;;;;;;6212722;23;20278;-86
2022/01/20 07:32:06;;;;;;;16.40;2.93;;;5.50;99.90;;;;;;6212094;23;20178;-85
2022/01/20 07:34:34;;;;;;;11.27;3.40;;;5.50;99.90;;;;;;6213487;23;20180;-89
2022/01/20 07:37:01;;;;;;;17.13;3.97;;;5.50;99.90;;;;;;6212473;23;20265;-86
2022/01/20 07:39:27;;;;;;;10.97;3.60;;;5.60;99.90;;;;;;6213338;23;20177;-86
2022/01/20 07:41:56;;;;;;;18.37;3.53;;;5.60;99.90;;;;;;6212136;23;20170;-83
2022/01/20 07:44:22;;;;;;;21.57;3.97;;;5.60;99.90;;;;;;6211097;23;20688;-85
2022/01/20 07:46:49;;;;;;;14.33;3.47;;;5.60;99.90;;;;;;6211040;23;20176;-86
2022/01/20 07:49:17;;;;;;;18.13;4.60;;;5.60;99.90;;;;;;6214331;23;20174;-86
2022/01/20 07:51:45;;;;;;;26.10;6.10;;;5.60;99.90;;;;;;6213900;23;20183;-85
2022/01/20 07:54:12;;;;;;;14.33;3.20;;;5.70;99.90;;;;;;6215484;23;20577;-85
2022/01/20 07:56:38;;;;;;;11.03;2.77;;;5.70;99.90;;;;;;6218916;23;20173;-86
2022/01/20 07:59:08;;;;;;;15.07;2.83;;;5.70;99.90;;;;;;6216295;23;20166;-89
2022/01/20 08:01:35;;;;;;;12.57;2.60;;;5.70;99.90;;;;;;6211343;23;20179;-90
2022/01/20 08:04:02;;;;;;;13.03;2.93;;;5.70;99.90;;;;;;6211645;23;20170;-86
2022/01/20 08:06:29;;;;;;;17.00;3.37;;;5.70;99.90;;;;;;6210597;23;20185;-88
2022/01/20 08:08:56;;;;;;;16.80;3.90;;;5.70;99.90;;;;;;6214030;23;20257;-82
2022/01/20 08:11:23;;;;;;;14.57;3.20;;;5.80;99.90;;;;;;6214676;23;20284;-89
2022/01/20 08:13:50;;;;;;;12.20;3.00;;;5.70;99.90;;;;;;6213555;23;20288;-88
2022/01/20 08:16:18;;;;;;;13.67;3.70;;;5.70;99.90;;;;;;6213749;23;20170;-83
2022/01/20 08:18:46;;;;;;;9.97;2.50;;;5.70;99.90;;;;;;6214094;23;20170;-86
2022/01/20 08:21:12;;;;;;;14.93;2.63;;;5.60;99.90;;;;;;6187170;23;20174;-92
2022/01/20 08:23:39;;;;;;;15.27;3.90;;;5.60;99.90;;;;;;6214375;23;20166;-88
2022/01/20 08:26:06;;;;;;;16.87;2.87;;;5.60;99.90;;;;;;6212584;23;20205;-84
2022/01/20 08:28:33;;;;;;;15.10;3.53;;;5.60;99.90;;;;;;6212930;23;20181;-86
2022/01/20 08:31:00;;;;;;;20.67;3.63;;;5.50;99.90;;;;;;6213246;23;20200;-85
2022/01/20 08:33:28;;;;;;;9.37;3.00;;;5.50;99.90;;;;;;6188197;23;20755;-82
2022/01/20 08:35:55;;;;;;;10.20;3.13;;;5.50;99.90;;;;;;6209233;23;20578;-84
2022/01/20 08:38:22;;;;;;;17.63;3.07;;;5.50;99.90;;;;;;6211440;23;20205;-84
2022/01/20 08:40:50;;;;;;;13.30;2.70;;;5.50;99.90;;;;;;6211611;23;20174;-84
2022/01/20 08:43:16;;;;;;;9.43;2.77;;;5.50;99.90;;;;;;6211379;23;20362;-87
2022/01/20 08:45:44;;;;;;;16.50;2.90;;;5.50;99.90;;;;;;6211491;23;20182;-85
2022/01/20 08:48:13;;;;;;;7.60;2.10;;;5.60;99.90;;;;;;6209242;23;20555;-82
2022/01/20 08:50:43;;;;;;;17.17;2.90;;;5.60;99.90;;;;;;6209834;23;20267;-83
2022/01/20 08:53:10;;;;;;;11.63;2.77;;;5.60;99.90;;;;;;6210202;23;20170;-87
2022/01/20 08:55:38;;;;;;;10.70;2.30;;;5.60;99.90;;;;;;6209929;23;20173;-79
2022/01/20 08:58:06;;;;;;;13.77;3.20;;;5.70;99.90;;;;;;6208058;23;20176;-83
2022/01/20 09:00:35;;;;;;;14.07;3.30;;;5.70;99.90;;;;;;6208360;23;20167;-86
2022/01/20 09:03:03;;;;;;;15.50;2.70;;;5.80;99.90;;;;;;6210774;23;20265;-82
2022/01/20 09:05:29;;;;;;;10.13;3.20;;;5.90;99.90;;;;;;6210726;23;20174;-86
2022/01/20 09:07:58;;;;;;;7.57;2.33;;;5.90;99.90;;;;;;6210985;23;20163;-82
2022/01/20 09:10:25;;;;;;;11.00;2.23;;;6.00;99.90;;;;;;6209193;23;20194;-82
2022/01/20 09:15:38;;;;;;;8.87;1.87;;;6.00;99.90;;;;;;6211126;23;20169;-84
2022/01/20 09:18:08;;;;;;;10.07;2.97;;;6.00;99.90;;;;;;6207719;23;20176;-83
2022/01/20 09:20:37;;;;;;;13.23;2.87;;;6.10;99.90;;;;;;6208929;23;20170;-83
2022/01/20 09:23:07;;;;;;;12.50;3.00;;;6.10;99.90;;;;;;6209958;23;20428;-82
2022/01/20 09:25:34;;;;;;;18.47;4.13;;;6.10;99.90;;;;;;6208000;23;20205;-81
2022/01/20 09:28:01;;;;;;;13.00;2.57;;;6.10;99.90;;;;;;6208179;23;20166;-84
2022/01/20 09:30:29;;;;;;;11.90;3.53;;;6.10;99.90;;;;;;6208518;23;20205;-84
2022/01/20 09:32:58;;;;;;;14.17;3.00;;;6.10;99.90;;;;;;6208922;23;20734;-85
2022/01/20 09:35:30;;;;;;;18.50;3.87;;;6.20;99.90;;;;;;6209644;23;20197;-82
2022/01/20 09:37:57;;;;;;;18.37;3.30;;;6.10;99.90;;;;;;6210407;23;20177;-82
2022/01/20 09:40:26;;;;;;;13.47;2.63;;;6.10;99.90;;;;;;6209029;23;20177;-84
2022/01/20 09:42:53;;;;;;;13.03;2.80;;;6.10;99.90;;;;;;6209878;23;20178;-85
2022/01/20 09:45:20;;;;;;;11.17;2.60;;;6.20;99.90;;;;;;6209328;23;20642;-84
2022/01/20 09:47:47;;;;;;;21.77;3.37;;;6.20;99.90;;;;;;6209961;23;20174;-85
2022/01/20 09:50:18;;;;;;;9.87;2.37;;;6.00;99.90;;;;;;6209935;23;20208;-84
2022/01/20 09:52:45;;;;;;;14.27;3.47;;;5.90;99.90;;;;;;6209998;23;20178;-86
2022/01/20 09:55:12;;;;;;;11.87;2.37;;;5.80;99.90;;;;;;6210894;23;20166;-84
2022/01/20 09:57:41;;;;;;;10.60;2.67;;;5.80;99.90;;;;;;6210124;23;20170;-86
2022/01/20 10:00:10;;;;;;;13.50;2.77;;;5.70;99.90;;;;;;6209328;23;20217;-88
2022/01/20 10:02:50;;;;;;;6.63;2.10;;;5.70;99.90;;;;;;6210513;23;20174;-84
2022/01/20 10:05:25;;;;;;;12.53;2.80;;;5.70;99.90;;;;;;6210814;23;20158;-86
2022/01/20 10:07:51;;;;;;;20.27;3.00;;;5.80;99.90;;;;;;6210734;23;20547;-85
2022/01/20 10:10:18;;;;;;;15.87;3.97;;;5.80;99.90;;;;;;6227802;23;20212;-89
2022/01/20 10:12:47;;;;;;;11.97;2.93;;;5.80;99.90;;;;;;6240235;23;20166;-82
2022/01/20 10:15:13;;;;;;;11.50;2.50;;;5.90;99.90;;;;;;6215244;23;20194;-83
2022/01/20 10:17:41;;;;;;;10.13;2.23;;;5.90;99.90;;;;;;6210330;23;20423;-83
2022/01/20 10:20:09;;;;;;;9.30;1.87;;;5.90;99.90;;;;;;6209592;23;20236;-83
2022/01/20 10:22:37;;;;;;;10.20;2.60;;;5.90;99.90;;;;;;6210752;23;20173;-85
2022/01/20 10:25:08;;;;;;;14.37;4.27;;;5.90;99.90;;;;;;6210594;23;20170;-85
2022/01/20 10:27:47;;;;;;;10.93;3.07;;;5.90;99.90;;;;;;6210504;23;20197;-84
2022/01/20 10:30:15;;;;;;;15.63;3.20;;;5.90;99.90;;;;;;6208526;23;20159;-87
2022/01/20 10:32:43;;;;;;;14.13;3.00;;;6.00;99.90;;;;;;6205821;23;20174;-86
2022/01/20 10:35:12;;;;;;;12.87;3.30;;;6.20;99.90;;;;;;6209929;23;20174;-83
2022/01/20 10:37:40;;;;;;;14.93;4.47;;;6.30;99.90;;;;;;6210085;23;20184;-84
2022/01/20 10:40:12;;;;;;;16.33;4.10;;;6.40;99.90;;;;;;6209974;23;20200;-83
2022/01/20 10:42:42;;;;;;;18.10;3.27;;;6.40;99.90;;;;;;6208105;23;20170;-83
2022/01/20 10:45:19;;;;;;;21.67;3.57;;;6.30;99.90;;;;;;6209516;23;20180;-82
2022/01/20 10:47:50;;;;;;;24.00;4.00;;;6.10;99.90;;;;;;6207950;23;20896;-84
2022/01/20 10:50:21;;;;;;;14.30;3.27;;;5.90;99.90;;;;;;6209348;23;20170;-84
2022/01/20 10:52:49;;;;;;;8.60;2.27;;;5.80;99.90;;;;;;6210060;23;20170;-84
2022/01/20 10:55:22;;;;;;;11.07;2.20;;;5.70;99.90;;;;;;6209837;23;20240;-84
2022/01/20 10:57:49;;;;;;;7.90;1.80;;;5.70;99.90;;;;;;6209208;23;20174;-83
2022/01/20 11:00:20;;;;;;;13.00;2.63;;;5.60;99.90;;;;;;6210542;23;20166;-83
2022/01/20 11:02:53;;;;;;;13.03;2.87;;;5.60;99.90;;;;;;6211747;23;20178;-87
2022/01/20 11:05:20;;;;;;;9.43;1.60;;;5.50;99.90;;;;;;6210571;23;20714;-86
2022/01/20 11:07:48;;;;;;;11.57;2.50;;;5.50;99.90;;;;;;6212658;23;20490;-85
2022/01/20 11:10:17;;;;;;;9.57;1.83;;;5.60;99.90;;;;;;6212161;23;20205;-82
2022/01/20 11:12:44;;;;;;;17.13;3.43;;;5.70;99.90;;;;;;6212028;23;20232;-86
2022/01/20 11:15:13;;;;;;;20.33;3.30;;;5.90;99.90;;;;;;6212972;23;20193;-85
2022/01/20 11:17:42;;;;;;;14.67;3.33;;;6.00;99.90;;;;;;6211524;23;20165;-85
2022/01/20 11:20:11;;;;;;;11.73;2.57;;;6.10;99.90;;;;;;6212016;23;20177;-81
2022/01/20 11:22:50;;;;;;;12.50;2.97;;;6.20;99.90;;;;;;6211950;23;20220;-82
2022/01/20 11:25:20;;;;;;;17.77;2.70;;;6.30;99.90;;;;;;6212227;23;20170;-83
2022/01/20 11:27:48;;;;;;;9.43;2.83;;;6.40;99.90;;;;;;6211849;23;20174;-86
2022/01/20 11:30:21;;;;;;;15.97;3.97;;;6.50;99.90;;;;;;6211894;23;20174;-88
2022/01/20 11:33:04;;;;;;;12.97;3.13;;;6.60;99.90;;;;;;6212385;23;20178;-84
2022/01/20 11:35:39;;;;;;;12.27;2.80;;;6.80;99.90;;;;;;6212311;23;20170;-85
2022/01/20 11:38:08;;;;;;;19.93;2.70;;;6.90;99.90;;;;;;6212517;23;20173;-82
2022/01/20 11:40:47;;;;;;;16.67;3.53;;;6.90;99.90;;;;;;6211735;23;20174;-84
2022/01/20 11:43:14;;;;;;;15.53;3.60;;;6.70;99.90;;;;;;6212158;23;20515;-83
2022/01/20 11:45:46;;;;;;;11.60;3.10;;;6.60;99.90;;;;;;6210763;23;20201;-84
2022/01/20 11:48:16;;;;;;;14.43;2.80;;;6.40;99.90;;;;;;6212135;23;20170;-85
2022/01/20 11:50:44;;;;;;;12.93;2.70;;;6.40;99.90;;;;;;6211520;23;20170;-84
2022/01/20 11:53:15;;;;;;;13.07;3.30;;;6.30;99.90;;;;;;6211252;23;20181;-87
2022/01/20 11:55:47;;;;;;;12.00;3.27;;;6.30;99.90;;;;;;6211093;23;20174;-86
2022/01/20 11:58:15;;;;;;;11.63;2.83;;;6.40;99.90;;;;;;6211398;23;20174;-82
2022/01/20 12:00:43;;;;;;;20.47;4.43;;;6.40;99.90;;;;;;6211251;23;20181;-85
2022/01/20 12:03:12;;;;;;;13.73;3.67;;;6.40;99.90;;;;;;6209860;23;20236;-85
2022/01/20 12:05:41;;;;;;;14.10;2.80;;;6.50;99.90;;;;;;6208894;23;20916;-83
2022/01/20 12:08:11;;;;;;;16.13;3.43;;;6.60;99.90;;;;;;6210546;23;20180;-86
2022/01/20 12:10:38;;;;;;;10.75;2.85;;;6.70;99.90;;;;;;6210284;23;20210;-83
2022/01/20 12:13:07;;;;;;;13.40;2.63;;;6.70;99.90;;;;;;6211033;23;20170;-87
2022/01/20 12:15:35;;;;;;;14.10;3.20;;;6.70;99.90;;;;;;6211381;23;20190;-82
2022/01/20 12:18:02;;;;;;;8.07;2.80;;;6.70;99.90;;;;;;6210719;23;20182;-81
2022/01/20 12:20:29;;;;;;;8.97;2.40;;;6.70;99.90;;;;;;6207799;23;20173;-82
2022/01/20 12:22:58;;;;;;;6.63;1.70;;;6.60;99.90;;;;;;6209055;23;20567;-82
2022/01/20 12:25:27;;;;;;;8.93;1.90;;;6.40;99.90;;;;;;6208581;23;20173;-81
2022/01/20 12:28:02;;;;;;;11.13;1.87;;;6.20;99.90;;;;;;6209483;23;20261;-83
2022/01/20 12:30:29;;;;;;;7.80;2.27;;;6.10;99.90;;;;;;6209462;23;20220;-83
2022/01/20 12:32:58;;;;;;;12.20;2.43;;;6.00;99.90;;;;;;6209097;23;20205;-85
2022/01/20 12:35:25;;;;;;;10.87;2.60;;;6.00;99.90;;;;;;6208606;23;20181;-82
2022/01/20 12:37:52;;;;;;;12.13;2.40;;;6.00;99.90;;;;;;6210076;23;20185;-85
2022/01/20 12:40:23;;;;;;;11.93;2.77;;;6.10;99.90;;;;;;6208999;23;20173;-83
2022/01/20 12:42:50;;;;;;;14.10;2.30;;;6.00;99.90;;;;;;6177400;23;20159;-83
2022/01/20 12:48:15;;;;;;;13.03;2.10;;;6.10;99.90;;;;;;6179723;23;20426;-82
2022/01/20 12:50:53;;;;;;;13.83;3.27;;;6.20;99.90;;;;;;6178593;23;20177;-83
2022/01/20 12:53:20;;;;;;;10.63;2.17;;;6.20;99.90;;;;;;6179116;23;20166;-83
2022/01/20 12:55:54;;;;;;;14.93;2.80;;;6.30;99.90;;;;;;6179262;23;20233;-83
2022/01/20 12:58:21;;;;;;;13.53;3.13;;;6.30;99.90;;;;;;6178390;23;20728;-83
2022/01/20 13:00:59;;;;;;;15.67;2.60;;;6.40;99.90;;;;;;6179681;23;20959;-83
2022/01/20 13:03:35;;;;;;;10.27;2.47;;;6.30;99.90;;;;;;6178751;23;20213;-82
2022/01/20 13:06:02;;;;;;;11.77;2.80;;;6.30;99.90;;;;;;6180250;23;20170;-83
2022/01/20 13:08:33;;;;;;;9.97;2.13;;;6.30;99.90;;;;;;6179182;23;20177;-83
2022/01/20 13:11:07;;;;;;;16.40;3.40;;;6.40;99.90;;;;;;6178001;23;20303;-85
2022/01/20 13:13:34;;;;;;;17.47;4.87;;;6.50;99.90;;;;;;6177044;23;20194;-81
2022/01/20 13:16:10;;;;;;;14.63;3.87;;;6.50;99.90;;;;;;6177018;23;20198;-82
2022/01/20 13:18:37;;;;;;;18.97;3.47;;;6.60;99.90;;;;;;6177154;23;20178;-83
2022/01/20 13:21:07;;;;;;;18.00;3.33;;;6.70;99.90;;;;;;6178376;23;20178;-80
2022/01/20 13:23:56;;;;;;;18.00;3.93;;;6.70;99.90;;;;;;6176525;23;20261;-82
2022/01/20 13:26:25;;;;;;;18.63;4.50;;;6.80;99.90;;;;;;6178519;23;20198;-82
2022/01/20 13:29:02;;;;;;;22.23;5.10;;;6.60;99.90;;;;;;6178746;23;20175;-84
2022/01/20 13:31:29;;;;;;;18.97;3.63;;;6.50;99.90;;;;;;6176486;23;20182;-83
2022/01/20 13:33:59;;;;;;;16.47;3.57;;;6.40;99.90;;;;;;6176861;23;20220;-86
2022/01/20 13:36:40;;;;;;;12.77;2.90;;;6.40;99.90;;;;;;6175604;23;20170;-87
2022/01/20 13:39:07;;;;;;;15.07;2.83;;;6.40;99.90;;;;;;6176411;23;20177;-81
2022/01/20 13:41:35;;;;;;;12.80;3.90;;;6.50;99.90;;;;;;6178857;23;20478;-85
2022/01/20 13:47:04;;;;;;;10.63;2.00;;;6.50;99.90;;;;;;6179804;23;20387;-85
2022/01/20 13:49:31;;;;;;;13.77;3.47;;;5.80;99.90;;;;;;6179322;23;20171;-85
2022/01/20 13:52:00;;;;;;;9.30;2.67;;;5.40;99.90;;;;;;6178883;23;20202;-84